Hovedside
METAR-TAF:

METAR-TAF

Lufthavner :

Pointe-à-Pitre, Guadeloupe

breddegrad: 16-16N, lengdegrad: 061-31W, høyde over havet: 11 m

Gjeldene værobservasjon

Denne rapporten ble laget for 28 minutter siden, klokken 15:30 UTC
Vind 10 kt fra Sør-sørøst
Temperatur 30°C
Luftfuktighet 70%
Trykk 1012 hPa
Sikt 10 km eller mer
ingen skyer under 1500 m og ingen bygeskyer

METAR: TFFR 201530Z AUTO 16010KT CAVOK 30/24 Q1012 TEMPO 3500 SHRA SCT018CB

Tid: 11:58 (15:58 UTC)

Varsel

Denne rapporten ble laget for 4 timer og 58 minutter siden, klokken 11:00 UTC
Varsel gyldig fra 20. klokken 12 UTC til 21. klokken 12 UTC
Vind 5 kt fra Sørøst
Sikt 10 km eller mer
Spredte skyer i en høyde av 3500 ft
Midlertidig
fra 20. klokken 15 UTC til 21. klokken 12 UTC
Sikt: 3500 m
Spredte skyer i en høyde av 1800 ft, Bygeskyer.
regnbyger

TAF: TFFR 201100Z 2012/2112 14005KT 9999 SCT035 TEMPO 2015/2112 3500 SHRA SCT018CB

Værobservasjoner og værvarsel for over 4000 flyplasser (METAR- og TAF-rapporter).

Tilgjengelige stasjoner er representert av de røde og gule prikkene på kartet.

Hold musepekeren over prikken for å se navnet på stasjonen.

Klikk så for å se værobservasjoner og -varsler.

For å forandre kartet kan du klikke på den grønne knappen med svart kryss for å zoome inn, på den grønne knappen med strek for å zoome ut, eller på de grønne pilene for å se tilstøtende kart.


METAR-TAF: